Time;durP1;ratioP1;P1;durP2;ratioP2;P2;SDS_P1;SDS_P2;PMS_P1;PMS_P2;Temp;Humidity;BMP_temperature;BMP_pressure;BME280_temperature;BME280_humidity;BME280_pressure;Samples;Min_cycle;Max_cycle;Signal;HPM_P1;HPM_P2
2020/12/27 00:00:25;;;;;;;;;;;;;;;-1.65;67.75;98523.67;1725294;83;26103;-86
2020/12/27 00:03:12;;;;;;;;;;;;;;;-1.65;67.75;98519.82;1721202;82;20587;-86
2020/12/27 00:05:58;;;;;;;;;;;;;;;-1.62;67.75;98518.90;1720546;82;20259;-86
2020/12/27 00:08:44;;;;;;;;;;;;;;;-1.62;67.74;98515.90;1723527;82;24923;-87
2020/12/27 00:11:32;;;;;;;;;;;;;;;-1.67;67.75;98506.17;1721876;81;22161;-87
2020/12/27 00:14:19;;;;;;;;;;;;;;;-1.64;67.76;98497.15;1730741;81;26113;-86
2020/12/27 00:17:05;;;;;;;;;;;;;;;-1.68;67.76;98491.64;1745175;80;24780;-86
2020/12/27 00:19:52;;;;;;;;;;;;;;;-1.70;67.76;98490.86;1706757;82;20331;-86
2020/12/27 00:22:38;;;;;;;;;;;;;;;-1.74;67.74;98486.20;1747446;81;25168;-86
2020/12/27 00:25:24;;;;;;;;;;;;;;;-1.75;67.74;98490.10;1709009;83;23264;-86
2020/12/27 00:28:10;;;;;;;;;;;;;;;-1.74;67.74;98489.20;1739404;82;27044;-86
2020/12/27 00:30:56;;;;;;;;;;;;;;;-1.76;67.73;98487.13;1729052;81;25513;-86
2020/12/27 00:33:42;;;;;;;;;;;;;;;-1.75;67.71;98479.84;1722770;81;20267;-86
2020/12/27 00:36:31;;;;;;;;;;;;;;;-1.75;67.73;98486.25;1729888;81;24898;-86
2020/12/27 00:39:21;;;;;;;;;;;;;;;-1.76;67.74;98490.97;1726094;82;22143;-85
2020/12/27 00:42:07;;;;;;;;;;;;;;;-1.73;67.74;98486.61;1729118;81;27056;-85
2020/12/27 00:44:55;;;;;;;;;;;;;;;-1.70;67.76;98481.88;1727770;81;25546;-86
2020/12/27 00:47:43;;;;;;;;;;;;;;;-1.70;67.76;98485.29;1727923;82;20282;-86
2020/12/27 00:50:29;;;;;;;;;;;;;;;-1.71;67.78;98483.59;1725167;82;25132;-85
2020/12/27 00:53:15;;;;;;;;;;;;;;;-1.70;67.79;98475.46;1732415;82;22306;-85
2020/12/27 00:56:01;;;;;;;;;;;;;;;-1.74;67.80;98471.25;1731124;82;26298;-85
2020/12/27 00:58:47;;;;;;;;;;;;;;;-1.74;67.77;98467.40;1729571;82;24608;-86
2020/12/27 01:01:33;;;;;;;;;;;;;;;-1.82;67.77;98462.44;1729934;81;20373;-86
2020/12/27 01:04:20;;;;;;;;;;;;;;;-1.89;67.77;98462.58;1725825;82;25762;-86
2020/12/27 01:07:06;;;;;;;;;;;;;;;-1.93;67.74;98460.53;1721535;82;23038;-86
2020/12/27 01:09:57;;;;;;;;;;;;;;;-1.90;67.72;98455.76;1726111;81;26873;-86
2020/12/27 01:12:43;;;;;;;;;;;;;;;-1.89;67.73;98456.17;1724514;81;24812;-86
2020/12/27 01:15:29;;;;;;;;;;;;;;;-1.88;67.75;98449.73;1739303;82;20481;-86
2020/12/27 01:18:15;;;;;;;;;;;;;;;-1.88;67.75;98430.94;1731244;81;25072;-87
2020/12/27 01:21:03;;;;;;;;;;;;;;;-1.90;67.77;98434.81;1724184;81;22086;-85
2020/12/27 01:23:53;;;;;;;;;;;;;;;-1.93;67.76;98423.78;1735361;81;26151;-85
2020/12/27 01:26:39;;;;;;;;;;;;;;;-1.93;67.75;98423.34;1736075;81;26125;-86
2020/12/27 01:29:25;;;;;;;;;;;;;;;-1.95;67.76;98428.93;1733338;81;20309;-86
2020/12/27 01:32:11;;;;;;;;;;;;;;;-1.93;67.74;98430.19;1740898;81;26445;-86
2020/12/27 01:34:57;;;;;;;;;;;;;;;-1.92;67.74;98425.04;1716598;82;22185;-85
2020/12/27 01:37:43;;;;;;;;;;;;;;;-1.89;67.75;98421.55;1732060;82;26130;-85
2020/12/27 01:40:29;;;;;;;;;;;;;;;-1.90;67.78;98432.24;1730238;82;24616;-85
2020/12/27 01:43:15;;;;;;;;;;;;;;;-1.89;67.76;98427.96;1731019;82;20266;-85
2020/12/27 01:46:02;;;;;;;;;;;;;;;-1.89;67.77;98413.86;1727754;82;24918;-86
2020/12/27 01:48:51;;;;;;;;;;;;;;;-1.85;67.77;98412.91;1731538;82;23015;-85
2020/12/27 01:51:41;;;;;;;;;;;;;;;-1.93;67.77;98408.39;1709155;82;27255;-85
2020/12/27 01:54:27;;;;;;;;;;;;;;;-1.93;67.76;98414.80;1736833;82;24606;-85
2020/12/27 01:57:19;;;;;;;;;;;;;;;-1.96;67.75;98422.54;1728795;82;20485;-86
2020/12/27 02:00:06;;;;;;;;;;;;;;;-1.99;67.75;98408.08;1735034;81;25063;-86
2020/12/27 02:02:52;;;;;;;;;;;;;;;-1.96;67.75;98395.62;1733510;82;22897;-86
2020/12/27 02:05:38;;;;;;;;;;;;;;;-1.97;67.75;98390.95;1733895;81;26365;-86
2020/12/27 02:08:24;;;;;;;;;;;;;;;-1.97;67.74;98388.39;1734386;82;24415;-86
2020/12/27 02:11:15;;;;;;;;;;;;;;;-1.98;67.74;98396.11;1737948;82;20226;-86
2020/12/27 02:14:01;;;;;;;;;;;;;;;-2.03;67.74;98381.26;1733594;81;25906;-86
2020/12/27 02:16:47;;;;;;;;;;;;;;;-1.97;67.77;98376.85;1734444;81;22276;-86
2020/12/27 02:19:34;;;;;;;;;;;;;;;-2.01;67.76;98370.52;1740353;81;27119;-86
2020/12/27 02:22:20;;;;;;;;;;;;;;;-2.01;67.75;98364.11;1733472;81;24592;-86
2020/12/27 02:25:06;;;;;;;;;;;;;;;-2.04;67.76;98352.21;1739260;82;20290;-86
2020/12/27 02:27:52;;;;;;;;;;;;;;;-2.03;67.75;98351.78;1731440;82;24944;-86
2020/12/27 02:30:38;;;;;;;;;;;;;;;-2.00;67.73;98347.41;1712344;82;22170;-86
2020/12/27 02:33:24;;;;;;;;;;;;;;;-2.03;67.76;98334.67;1742063;82;26123;-86
2020/12/27 02:36:12;;;;;;;;;;;;;;;-2.10;67.74;98334.39;1712900;83;24561;-86
2020/12/27 02:38:58;;;;;;;;;;;;;;;-2.10;67.75;98331.83;1723953;82;20532;-86
2020/12/27 02:41:47;;;;;;;;;;;;;;;-2.07;67.73;98333.03;1742767;82;24229;-85
2020/12/27 02:47:25;;;;;;;;;;;;;;;-2.01;67.75;98328.20;1727605;83;26400;-85
2020/12/27 02:50:11;;;;;;;;;;;;;;;-2.06;67.76;98319.34;1724816;82;24671;-85
2020/12/27 02:52:57;;;;;;;;;;;;;;;-2.13;67.76;98314.77;1724579;83;20597;-86
2020/12/27 02:55:43;;;;;;;;;;;;;;;-2.14;67.74;98313.55;1729415;82;24893;-86
2020/12/27 02:58:30;;;;;;;;;;;;;;;-2.17;67.76;98308.03;1725830;82;22114;-86
2020/12/27 03:01:16;;;;;;;;;;;;;;;-2.17;67.74;98304.19;1740219;82;26283;-86
2020/12/27 03:04:06;;;;;;;;;;;;;;;-2.16;67.76;98291.78;1728092;83;25457;-86
2020/12/27 03:06:52;;;;;;;;;;;;;;;-2.11;67.76;98296.38;1709493;83;20393;-86
2020/12/27 03:09:39;;;;;;;;;;;;;;;-2.15;67.76;98294.77;1719802;83;25073;-86
2020/12/27 03:12:25;;;;;;;;;;;;;;;-2.14;67.76;98290.05;1744071;82;22144;-86
2020/12/27 03:15:12;;;;;;;;;;;;;;;-2.15;67.76;98286.22;1720457;82;27151;-87
2020/12/27 03:17:58;;;;;;;;;;;;;;;-2.16;67.78;98270.44;1711936;82;24601;-86
2020/12/27 03:20:46;;;;;;;;;;;;;;;-2.18;67.79;98257.64;1718154;81;20515;-86
2020/12/27 03:23:32;;;;;;;;;;;;;;;-2.19;67.76;98250.02;1715382;82;25766;-86
2020/12/27 03:26:18;;;;;;;;;;;;;;;-2.16;67.77;98237.96;1733880;81;22115;-85
2020/12/27 03:29:04;;;;;;;;;;;;;;;-2.19;67.79;98239.76;1742042;81;26223;-86
2020/12/27 03:31:49;;;;;;;;;;;;;;;-2.20;67.79;98234.22;1711520;82;25455;-86
2020/12/27 03:34:36;;;;;;;;;;;;;;;-2.24;67.78;98232.17;1738834;82;20258;-86
2020/12/27 03:37:22;;;;;;;;;;;;;;;-2.29;67.78;98215.22;1738733;80;24880;-85
2020/12/27 03:40:08;;;;;;;;;;;;;;;-2.33;67.76;98215.70;1719295;83;22242;-86
2020/12/27 03:42:54;;;;;;;;;;;;;;;-2.30;67.76;98210.52;1722979;83;26284;-86
2020/12/27 03:45:41;;;;;;;;;;;;;;;-2.27;67.76;98204.47;1727718;81;24779;-86
2020/12/27 03:48:27;;;;;;;;;;;;;;;-2.24;67.74;98203.98;1717171;83;20373;-86
2020/12/27 03:51:13;;;;;;;;;;;;;;;-2.23;67.74;98198.39;1724228;82;24959;-86
2020/12/27 03:54:01;;;;;;;;;;;;;;;-2.18;67.77;98197.41;1729543;83;22984;-86
2020/12/27 03:56:46;;;;;;;;;;;;;;;-2.16;67.76;98189.70;1730799;81;26096;-86
2020/12/27 03:59:34;;;;;;;;;;;;;;;-2.14;67.77;98184.95;1727856;81;24608;-86
2020/12/27 04:02:21;;;;;;;;;;;;;;;-2.14;67.76;98184.95;1721631;83;20558;-86
2020/12/27 04:05:09;;;;;;;;;;;;;;;-2.08;67.76;98190.81;1728139;81;24925;-86
2020/12/27 04:07:55;;;;;;;;;;;;;;;-2.05;67.76;98186.87;1730700;82;22057;-86
2020/12/27 04:10:41;;;;;;;;;;;;;;;-2.05;67.80;98190.72;1724358;83;27136;-86
2020/12/27 04:13:31;;;;;;;;;;;;;;;-2.00;67.81;98196.58;1737776;80;24925;-85
2020/12/27 04:16:17;;;;;;;;;;;;;;;-2.02;67.79;98194.08;1716589;82;20595;-86
2020/12/27 04:19:03;;;;;;;;;;;;;;;-2.01;67.77;98191.05;1725321;82;24926;-86
2020/12/27 04:21:49;;;;;;;;;;;;;;;-2.01;67.80;98182.08;1722335;82;21814;-86
2020/12/27 04:24:35;;;;;;;;;;;;;;;-2.06;67.80;98177.06;1723109;82;26165;-85
2020/12/27 04:27:21;;;;;;;;;;;;;;;-2.08;67.76;98178.84;1718746;83;24607;-85
2020/12/27 04:30:07;;;;;;;;;;;;;;;-2.09;67.75;98184.84;1726537;81;20381;-85
2020/12/27 04:32:54;;;;;;;;;;;;;;;-2.06;67.72;98168.09;1719430;83;24914;-84
2020/12/27 04:35:40;;;;;;;;;;;;;;;-2.09;67.71;98158.36;1720664;82;22390;-85
2020/12/27 04:38:28;;;;;;;;;;;;;;;-2.04;67.69;98155.24;1720202;83;26987;-85
2020/12/27 04:41:14;;;;;;;;;;;;;;;-2.07;67.69;98145.89;1723611;82;23902;-84
2020/12/27 04:44:00;;;;;;;;;;;;;;;-2.12;67.67;98143.44;1728567;82;20275;-86
2020/12/27 04:46:47;;;;;;;;;;;;;;;-2.12;67.65;98137.03;1708348;83;24644;-85
2020/12/27 04:49:34;;;;;;;;;;;;;;;-2.16;67.63;98126.90;1719340;81;22296;-85
2020/12/27 04:52:21;;;;;;;;;;;;;;;-2.20;67.60;98127.42;1724035;81;26088;-85
2020/12/27 04:55:07;;;;;;;;;;;;;;;-2.19;67.57;98126.98;1738425;82;24726;-85
2020/12/27 04:57:53;;;;;;;;;;;;;;;-2.20;67.55;98120.17;1738546;82;20260;-86
2020/12/27 05:00:39;;;;;;;;;;;;;;;-2.20;67.52;98121.45;1723685;83;25082;-85
2020/12/27 05:03:25;;;;;;;;;;;;;;;-2.20;67.51;98129.14;1726614;81;22219;-86
2020/12/27 05:09:24;;;;;;;;;;;;;;;-2.20;67.46;98116.33;1742744;80;24550;-85
2020/12/27 05:12:13;;;;;;;;;;;;;;;-2.22;67.46;98124.48;1751629;80;20571;-85
2020/12/27 05:15:00;;;;;;;;;;;;;;;-2.22;67.45;98120.20;1720366;82;24971;-86
2020/12/27 05:17:46;;;;;;;;;;;;;;;-2.19;67.39;98116.73;1717850;82;22283;-85
2020/12/27 05:20:32;;;;;;;;;;;;;;;-2.17;67.37;98121.36;1738229;80;26259;-86
2020/12/27 05:23:19;;;;;;;;;;;;;;;-2.17;67.36;98119.64;1727724;80;24602;-86
2020/12/27 05:26:05;;;;;;;;;;;;;;;-2.14;67.37;98125.16;1712516;82;20281;-86
2020/12/27 05:28:52;;;;;;;;;;;;;;;-2.19;67.34;98118.02;1713148;82;25093;-86
2020/12/27 05:31:38;;;;;;;;;;;;;;;-2.19;67.33;98115.45;1716343;82;21998;-86
2020/12/27 05:34:25;;;;;;;;;;;;;;;-2.24;67.30;98109.16;1705798;82;27275;-86
2020/12/27 05:37:11;;;;;;;;;;;;;;;-2.23;67.30;98100.56;1739472;80;25065;-87
2020/12/27 05:40:00;;;;;;;;;;;;;;;-2.17;67.28;98099.58;1720467;81;20256;-87
2020/12/27 05:42:46;;;;;;;;;;;;;;;-2.16;67.26;98097.42;1712248;81;24950;-85
2020/12/27 05:45:34;;;;;;;;;;;;;;;-2.15;67.25;98098.67;1711795;81;22262;-85
2020/12/27 05:48:20;;;;;;;;;;;;;;;-2.16;67.23;98088.02;1717442;81;26541;-85
2020/12/27 05:51:06;;;;;;;;;;;;;;;-2.11;67.21;98089.17;1716095;81;25445;-86
2020/12/27 05:53:52;;;;;;;;;;;;;;;-2.09;67.21;98086.14;1721378;81;20558;-86
2020/12/27 05:56:39;;;;;;;;;;;;;;;-2.06;67.21;98083.93;1723925;81;25933;-85
2020/12/27 05:59:25;;;;;;;;;;;;;;;-2.03;67.19;98078.30;1725236;81;23053;-85
2020/12/27 06:02:11;;;;;;;;;;;;;;;-2.01;67.19;98074.40;1723654;81;26130;-85
2020/12/27 06:04:57;;;;;;;;;;;;;;;-1.98;67.18;98073.05;1717401;81;24560;-85
2020/12/27 06:07:43;;;;;;;;;;;;;;;-1.98;67.17;98067.92;1708693;81;20379;-86
2020/12/27 06:10:30;;;;;;;;;;;;;;;-2.00;67.16;98061.98;1718700;81;24931;-85
2020/12/27 06:13:16;;;;;;;;;;;;;;;-1.99;67.13;98055.98;1721202;81;22330;-85
2020/12/27 06:16:02;;;;;;;;;;;;;;;-2.01;67.11;98035.50;1713360;81;26194;-85
2020/12/27 06:18:37;;;;;;;;;;;;;;;-2.01;67.09;98034.66;1717431;81;24002;-85
2020/12/27 06:21:23;;;;;;;;;;;;;;;-2.01;67.08;98026.53;1724918;81;20321;-85
2020/12/27 06:24:08;;;;;;;;;;;;;;;-2.00;67.06;98038.91;1722940;81;24928;-86
2020/12/27 06:26:57;;;;;;;;;;;;;;;-1.99;67.04;98039.32;1718486;81;23293;-87
2020/12/27 06:29:43;;;;;;;;;;;;;;;-1.96;67.03;98043.06;1713581;81;26233;-86
2020/12/27 06:32:30;;;;;;;;;;;;;;;-1.98;67.04;98034.59;1720671;81;24599;-87
2020/12/27 06:35:16;;;;;;;;;;;;;;;-1.95;67.00;98035.78;1720855;81;20281;-86
2020/12/27 06:38:06;;;;;;;;;;;;;;;-1.96;66.98;98032.38;1725238;81;24915;-86
2020/12/27 06:40:51;;;;;;;;;;;;;;;-1.95;66.97;98040.91;1718016;81;22828;-86
2020/12/27 06:43:38;;;;;;;;;;;;;;;-1.96;66.96;98037.94;1724957;81;25901;-86
2020/12/27 06:46:26;;;;;;;;;;;;;;;-1.97;66.95;98046.54;1717632;81;24594;-87
2020/12/27 06:49:13;;;;;;;;;;;;;;;-1.94;66.91;98042.16;1717565;81;20276;-85
2020/12/27 06:51:59;;;;;;;;;;;;;;;-1.94;66.90;98042.16;1718918;81;24752;-85
2020/12/27 06:54:47;;;;;;;;;;;;;;;-1.93;66.88;98030.19;1731489;80;23253;-85
2020/12/27 06:57:34;;;;;;;;;;;;;;;-1.90;66.87;98024.96;1730113;80;26135;-85
2020/12/27 07:00:20;;;;;;;;;;;;;;;-1.88;66.87;98024.49;1738826;80;24547;-84
2020/12/27 07:03:05;;;;;;;;;;;;;;;-1.88;66.86;98016.36;1742184;80;20355;-85
2020/12/27 07:09:02;;;;;;;;;;;;;;;-1.84;66.83;98022.23;1711615;82;22000;-88
2020/12/27 07:11:49;;;;;;;;;;;;;;;-1.82;66.80;98014.91;1709094;82;26120;-88
2020/12/27 07:14:35;;;;;;;;;;;;;;;-1.83;66.78;98009.38;1713403;83;25385;-87
2020/12/27 07:17:21;;;;;;;;;;;;;;;-1.77;66.77;98007.94;1709903;82;20284;-87
2020/12/27 07:20:15;;;;;;;;;;;;;;;-1.74;66.76;97994.17;1714705;82;24969;-86
2020/12/27 07:22:55;;;;;;;;;;;;;;;-1.71;66.78;97987.69;1708609;83;22372;-86
2020/12/27 07:25:41;;;;;;;;;;;;;;;-1.72;66.76;97993.25;1709439;82;27149;-86
2020/12/27 07:28:28;;;;;;;;;;;;;;;-1.69;66.77;97982.89;1713825;82;24870;-85
2020/12/27 07:31:13;;;;;;;;;;;;;;;-1.69;66.74;97981.61;1711346;82;20417;-85
2020/12/27 07:34:00;;;;;;;;;;;;;;;-1.63;66.73;97978.47;1711464;82;25072;-85
2020/12/27 07:36:46;;;;;;;;;;;;;;;-1.61;66.75;97971.58;1708149;82;23045;-85
2020/12/27 07:39:37;;;;;;;;;;;;;;;-1.55;66.75;97975.27;1711820;82;26229;-85
2020/12/27 07:42:23;;;;;;;;;;;;;;;-1.55;66.76;97977.39;1713613;83;24607;-86
2020/12/27 07:45:09;;;;;;;;;;;;;;;-1.54;66.73;97980.80;1708388;82;20285;-84
2020/12/27 07:47:56;;;;;;;;;;;;;;;-1.45;66.75;97976.23;1676450;83;25835;-85
2020/12/27 07:50:42;;;;;;;;;;;;;;;-1.41;66.74;97982.09;1643298;86;22229;-85
2020/12/27 07:53:28;;;;;;;;;;;;;;;-1.39;66.75;97980.34;1651596;85;26146;-85
2020/12/27 07:56:14;;;;;;;;;;;;;;;-1.36;66.74;97979.80;1709672;82;24651;-86
2020/12/27 07:59:00;;;;;;;;;;;;;;;-1.32;66.73;97973.70;1708670;83;20596;-86
2020/12/27 08:01:46;;;;;;;;;;;;;;;-1.31;66.73;97968.95;1710382;83;24962;-86
2020/12/27 08:04:32;;;;;;;;;;;;;;;-1.27;66.75;97979.55;1710901;82;22157;-86
2020/12/27 08:07:18;;;;;;;;;;;;;;;-1.20;66.73;97965.24;1705555;82;26958;-86
2020/12/27 08:10:04;;;;;;;;;;;;;;;-1.21;66.74;97973.38;1719214;81;25480;-86
2020/12/27 08:12:50;;;;;;;;;;;;;;;-1.22;66.74;97969.12;1719286;82;20467;-85
2020/12/27 08:15:36;;;;;;;;;;;;;;;-1.16;66.72;97964.25;1720100;82;24880;-85
2020/12/27 08:18:23;;;;;;;;;;;;;;;-1.12;66.72;97965.39;1719982;82;22324;-85
2020/12/27 08:21:08;;;;;;;;;;;;;;;-1.11;66.72;97958.53;1720862;82;26997;-85
2020/12/27 08:23:55;;;;;;;;;;;;;;;-1.10;66.71;97957.20;1691409;83;24733;-85
2020/12/27 08:26:40;;;;;;;;;;;;;;;-1.07;66.72;97958.83;1680774;83;20406;-85
2020/12/27 08:29:27;;;;;;;;;;;;;;;-1.07;66.72;97959.67;1683266;83;24917;-85
2020/12/27 08:32:13;;;;;;;;;;;;;;;-0.99;66.71;97965.86;1680533;83;22169;-86
2020/12/27 08:34:59;;;;;;;;;;;;;;;-0.94;66.70;97965.27;1675684;83;26198;-86
2020/12/27 08:37:45;;;;;;;;;;;;;;;-0.90;66.71;97963.84;1660741;84;24680;-86
2020/12/27 08:40:32;;;;;;;;;;;;;;;-0.86;66.72;97959.43;1659078;86;20284;-87
2020/12/27 08:43:18;;;;;;;;;;;;;;;-0.87;66.71;97957.74;1657960;86;25169;-86
2020/12/27 08:46:04;;;;;;;;;;;;;;;-0.86;66.69;97942.73;1660711;84;22432;-86
2020/12/27 08:48:50;;;;;;;;;;;;;;;-0.80;66.68;97951.97;1654003;85;27310;-87
2020/12/27 08:51:36;;;;;;;;;;;;;;;-0.76;66.69;97962.56;1665982;85;24874;-86
2020/12/27 08:54:22;;;;;;;;;;;;;;;-0.70;66.69;97955.47;1664531;84;20310;-86
2020/12/27 08:57:08;;;;;;;;;;;;;;;-0.69;66.68;97949.45;1669273;83;24790;-87
2020/12/27 08:59:57;;;;;;;;;;;;;;;-0.62;66.68;97938.09;1660924;84;22357;-86
2020/12/27 09:02:43;;;;;;;;;;;;;;;-0.57;66.68;97937.49;1662363;84;26367;-86
2020/12/27 09:05:29;;;;;;;;;;;;;;;-0.54;66.70;97932.68;1666599;85;24586;-86
2020/12/27 09:08:16;;;;;;;;;;;;;;;-0.51;66.70;97927.02;1661746;84;20539;-86
2020/12/27 09:11:02;;;;;;;;;;;;;;;-0.50;66.69;97926.56;1663482;84;25929;-86
2020/12/27 09:13:48;;;;;;;;;;;;;;;-0.47;66.67;97923.44;1668959;84;22212;-87
2020/12/27 09:16:34;;;;;;;;;;;;;;;-0.43;66.67;97921.14;1661004;84;26145;-87
2020/12/27 09:19:21;;;;;;;;;;;;;;;-0.37;66.66;97923.11;1667390;84;24679;-87
2020/12/27 09:22:08;;;;;;;;;;;;;;;-0.36;66.62;97902.95;1661498;84;20305;-87
2020/12/27 09:24:54;;;;;;;;;;;;;;;-0.32;66.61;97909.65;1685177;84;24969;-87
2020/12/27 09:27:40;;;;;;;;;;;;;;;-0.28;66.59;97902.25;1653355;86;22330;-87
2020/12/27 09:30:26;;;;;;;;;;;;;;;-0.26;66.59;97895.30;1649596;83;26120;-87
2020/12/27 09:33:12;;;;;;;;;;;;;;;-0.20;66.58;97897.66;1676627;84;27305;-87
2020/12/27 09:35:58;;;;;;;;;;;;;;;-0.17;66.56;97897.13;1683845;85;20267;-86
2020/12/27 09:38:45;;;;;;;;;;;;;;;-0.14;66.54;97892.30;1653934;86;25114;-86
2020/12/27 09:41:32;;;;;;;;;;;;;;;-0.09;66.53;97890.40;1646620;85;22232;-86
2020/12/27 09:44:18;;;;;;;;;;;;;;;-0.03;66.52;97882.02;1657335;85;26175;-86
2020/12/27 09:47:07;;;;;;;;;;;;;;;0.03;66.49;97867.26;1653347;86;24883;-86
2020/12/27 09:49:54;;;;;;;;;;;;;;;0.04;66.48;97865.92;1653552;86;20309;-86
2020/12/27 09:52:43;;;;;;;;;;;;;;;0.07;66.47;97851.65;1643286;86;25651;-86
2020/12/27 09:55:30;;;;;;;;;;;;;;;0.09;66.45;97846.02;1681854;83;21963;-86
2020/12/27 09:58:15;;;;;;;;;;;;;;;0.13;66.46;97844.15;1656909;85;26980;-87
2020/12/27 10:01:01;;;;;;;;;;;;;;;0.19;66.45;97831.90;1654778;85;25524;-87
2020/12/27 10:03:48;;;;;;;;;;;;;;;0.24;66.43;97835.13;1654973;85;20274;-87
2020/12/27 10:06:34;;;;;;;;;;;;;;;0.32;66.44;97819.41;1643961;85;24887;-86
2020/12/27 10:09:21;;;;;;;;;;;;;;;0.34;66.42;97807.30;1666782;84;22803;-86
2020/12/27 10:12:07;;;;;;;;;;;;;;;0.37;66.41;97789.19;1664125;84;26377;-86
2020/12/27 10:14:54;;;;;;;;;;;;;;;0.40;66.39;97783.91;1666838;84;24627;-86
2020/12/27 10:17:40;;;;;;;;;;;;;;;0.46;66.37;97770.80;1663791;84;20642;-86
2020/12/27 10:20:26;;;;;;;;;;;;;;;0.52;66.35;97764.56;1667723;86;25416;-85
2020/12/27 10:23:12;;;;;;;;;;;;;;;0.54;66.32;97752.03;1658273;84;22270;-85
2020/12/27 10:25:58;;;;;;;;;;;;;;;0.54;66.29;97740.89;1717077;82;26121;-85
2020/12/27 10:28:43;;;;;;;;;;;;;;;0.61;66.30;97733.28;1716346;82;25447;-86
2020/12/27 10:31:31;;;;;;;;;;;;;;;0.62;66.29;97715.66;1717509;82;20312;-86
2020/12/27 10:34:18;;;;;;;;;;;;;;;0.62;66.24;97715.20;1717694;81;25007;-86
2020/12/27 10:37:04;;;;;;;;;;;;;;;0.64;66.21;97711.29;1672966;84;22148;-86
2020/12/27 10:39:51;;;;;;;;;;;;;;;0.67;66.21;97711.98;1714913;81;26315;-86
2020/12/27 10:42:37;;;;;;;;;;;;;;;0.70;66.17;97690.44;1716119;81;24630;-86
2020/12/27 10:45:23;;;;;;;;;;;;;;;0.70;66.15;97686.58;1718926;81;20309;-86
2020/12/27 10:48:09;;;;;;;;;;;;;;;0.73;66.10;97667.13;1723213;81;24905;-86
2020/12/27 10:50:55;;;;;;;;;;;;;;;0.77;66.04;97654.48;1718786;81;23138;-86
2020/12/27 10:53:45;;;;;;;;;;;;;;;0.84;66.01;97652.05;1680955;83;27069;-86
2020/12/27 10:56:32;;;;;;;;;;;;;;;0.88;65.97;97657.44;1714775;81;24632;-87
2020/12/27 10:59:21;;;;;;;;;;;;;;;0.95;65.90;97648.55;1717519;81;20695;-87
2020/12/27 11:02:07;;;;;;;;;;;;;;;1.01;65.85;97654.72;1713768;82;25684;-87
2020/12/27 11:04:53;;;;;;;;;;;;;;;1.04;65.80;97657.59;1717112;81;22232;-88
2020/12/27 11:07:41;;;;;;;;;;;;;;;1.05;65.77;97642.08;1717638;81;26136;-87
2020/12/27 11:10:27;;;;;;;;;;;;;;;1.12;65.74;97632.34;1661360;84;24955;-88
2020/12/27 11:13:13;;;;;;;;;;;;;;;1.11;65.70;97626.80;1653886;84;20565;-87
2020/12/27 11:15:59;;;;;;;;;;;;;;;1.12;65.61;97620.30;1656940;86;24880;-88
2020/12/27 11:18:45;;;;;;;;;;;;;;;1.13;65.55;97606.52;1654750;86;23067;-86
2020/12/27 11:21:32;;;;;;;;;;;;;;;1.17;65.51;97602.89;1683218;84;26141;-87
2020/12/27 11:24:18;;;;;;;;;;;;;;;1.18;65.46;97599.41;1652342;86;24659;-86
2020/12/27 11:27:05;;;;;;;;;;;;;;;1.19;65.43;97593.36;1657548;85;20554;-87
2020/12/27 11:29:53;;;;;;;;;;;;;;;1.21;65.38;97583.80;1718651;81;25060;-88
2020/12/27 11:32:39;;;;;;;;;;;;;;;1.25;65.31;97565.18;1717486;82;22944;-89
2020/12/27 11:35:25;;;;;;;;;;;;;;;1.28;65.27;97563.73;1715606;82;26253;-91
2020/12/27 11:38:11;;;;;;;;;;;;;;;1.34;65.24;97551.02;1684572;83;24792;-90
2020/12/27 11:40:57;;;;;;;;;;;;;;;1.39;65.20;97538.30;1719090;81;20340;-89
2020/12/27 11:43:43;;;;;;;;;;;;;;;1.41;65.15;97531.78;1659529;85;24922;-87
2020/12/27 11:46:30;;;;;;;;;;;;;;;1.41;65.11;97510.71;1671116;84;22121;-88
2020/12/27 11:49:20;;;;;;;;;;;;;;;1.46;65.06;97504.04;1668667;84;26226;-86
2020/12/27 11:52:06;;;;;;;;;;;;;;;1.51;65.02;97511.09;1669314;84;25011;-87
2020/12/27 11:54:52;;;;;;;;;;;;;;;1.59;64.98;97504.64;1671699;84;20281;-86
2020/12/27 11:57:38;;;;;;;;;;;;;;;1.62;64.96;97499.81;1666767;84;24921;-86
2020/12/27 12:00:24;;;;;;;;;;;;;;;1.67;64.88;97482.36;1666866;84;22842;-86
2020/12/27 12:03:10;;;;;;;;;;;;;;;1.66;64.84;97466.50;1651364;86;26117;-86
2020/12/27 12:05:56;;;;;;;;;;;;;;;1.67;64.79;97461.28;1718351;83;24565;-86
2020/12/27 12:08:42;;;;;;;;;;;;;;;1.72;64.76;97452.02;1714090;82;20599;-86
2020/12/27 12:11:29;;;;;;;;;;;;;;;1.73;64.72;97439.96;1710483;81;25053;-86
2020/12/27 12:14:17;;;;;;;;;;;;;;;1.73;64.65;97425.33;1716471;82;22316;-86
2020/12/27 12:17:05;;;;;;;;;;;;;;;1.78;64.60;97411.73;1709132;82;27158;-86
2020/12/27 12:19:51;;;;;;;;;;;;;;;1.82;64.54;97417.11;1706204;82;26340;-86
2020/12/27 12:22:40;;;;;;;;;;;;;;;1.86;64.50;97410.87;1710906;82;20268;-86
2020/12/27 12:25:26;;;;;;;;;;;;;;;1.92;64.41;97389.92;1709614;82;24905;-86
2020/12/27 12:28:17;;;;;;;;;;;;;;;1.97;64.35;97381.94;1713053;82;22150;-86
2020/12/27 12:31:03;;;;;;;;;;;;;;;1.96;64.25;97380.30;1710114;83;26094;-86
2020/12/27 12:33:49;;;;;;;;;;;;;;;1.99;64.16;97384.83;1679620;83;24580;-86
2020/12/27 12:36:35;;;;;;;;;;;;;;;2.06;64.09;97387.92;1679353;83;20358;-85
2020/12/27 12:39:21;;;;;;;;;;;;;;;2.13;64.01;97389.73;1670885;84;24915;-85
2020/12/27 12:42:07;;;;;;;;;;;;;;;2.07;63.93;97381.86;1650016;86;23144;-85
2020/12/27 12:44:54;;;;;;;;;;;;;;;2.03;63.85;97376.00;1708392;81;25554;-85
2020/12/27 12:47:41;;;;;;;;;;;;;;;1.93;63.78;97375.28;1715591;81;24515;-85
2020/12/27 12:50:27;;;;;;;;;;;;;;;1.87;63.70;97367.40;1707646;83;20300;-85
2020/12/27 12:53:13;;;;;;;;;;;;;;;1.84;63.63;97361.13;1708160;82;25913;-85
2020/12/27 12:55:59;;;;;;;;;;;;;;;1.79;63.56;97351.96;1712066;81;22130;-85
2020/12/27 12:58:45;;;;;;;;;;;;;;;1.81;63.48;97330.77;1714180;83;26140;-85
2020/12/27 13:01:32;;;;;;;;;;;;;;;1.88;63.44;97319.23;1711994;82;24635;-85
2020/12/27 13:04:21;;;;;;;;;;;;;;;1.90;63.39;97304.06;1703122;82;20402;-85
2020/12/27 13:07:07;;;;;;;;;;;;;;;1.92;63.33;97300.08;1678038;84;25039;-85
2020/12/27 13:09:56;;;;;;;;;;;;;;;1.93;63.28;97289.69;1652431;85;22223;-85
2020/12/27 13:12:44;;;;;;;;;;;;;;;1.90;63.20;97270.52;1692215;83;26543;-85
2020/12/27 13:15:30;;;;;;;;;;;;;;;1.85;63.10;97282.84;1660964;84;25252;-85
2020/12/27 13:18:16;;;;;;;;;;;;;;;1.83;63.01;97258.86;1728791;82;20527;-85
2020/12/27 13:21:05;;;;;;;;;;;;;;;1.84;62.91;97252.80;1723071;81;25065;-85
2020/12/27 13:23:51;;;;;;;;;;;;;;;1.82;62.81;97240.88;1726168;82;22150;-86
2020/12/27 13:26:37;;;;;;;;;;;;;;;1.82;62.71;97230.11;1687394;84;26181;-86
2020/12/27 13:29:27;;;;;;;;;;;;;;;1.83;62.59;97234.36;1664276;84;24704;-86
2020/12/27 13:32:13;;;;;;;;;;;;;;;1.87;62.49;97229.85;1687081;84;20530;-86
2020/12/27 13:34:59;;;;;;;;;;;;;;;1.88;62.38;97218.63;1665926;84;24880;-86
2020/12/27 13:37:45;;;;;;;;;;;;;;;1.88;62.24;97210.44;1660079;86;22130;-86
2020/12/27 13:40:37;;;;;;;;;;;;;;;1.89;62.10;97214.68;1726683;82;26884;-86
2020/12/27 13:43:25;;;;;;;;;;;;;;;1.94;61.99;97220.88;1696276;83;25636;-86
2020/12/27 13:46:16;;;;;;;;;;;;;;;1.91;61.89;97212.83;1695419;83;20515;-86
2020/12/27 13:49:01;;;;;;;;;;;;;;;1.93;61.79;97214.05;1685736;83;26323;-86
2020/12/27 13:51:48;;;;;;;;;;;;;;;1.93;61.71;97208.44;1720653;81;22224;-87
2020/12/27 13:54:34;;;;;;;;;;;;;;;1.98;61.63;97208.17;1726673;81;26103;-86
2020/12/27 13:57:20;;;;;;;;;;;;;;;2.01;61.59;97197.25;1731493;81;24641;-86
2020/12/27 14:00:07;;;;;;;;;;;;;;;2.05;61.55;97183.25;1731364;81;20334;-86
2020/12/27 14:02:53;;;;;;;;;;;;;;;2.10;61.49;97174.79;1727713;81;24941;-87
2020/12/27 14:05:39;;;;;;;;;;;;;;;2.06;61.47;97162.16;1731155;81;22124;-85
2020/12/27 14:08:25;;;;;;;;;;;;;;;1.99;61.41;97153.09;1730246;81;27171;-84
2020/12/27 14:11:12;;;;;;;;;;;;;;;1.98;61.36;97140.64;1708632;81;24778;-85
2020/12/27 14:13:58;;;;;;;;;;;;;;;1.98;61.31;97144.97;1713513;82;20671;-85
2020/12/27 14:16:44;;;;;;;;;;;;;;;1.88;61.27;97138.21;1650156;84;24927;-85
2020/12/27 14:19:30;;;;;;;;;;;;;;;1.84;61.22;97134.60;1649076;86;22079;-85
2020/12/27 14:22:19;;;;;;;;;;;;;;;1.74;61.16;97133.00;1680453;83;27291;-85
2020/12/27 14:25:05;;;;;;;;;;;;;;;1.62;61.11;97125.94;1649994;86;24721;-85
2020/12/27 14:27:51;;;;;;;;;;;;;;;1.60;61.03;97120.85;1651879;86;20550;-85
2020/12/27 14:30:39;;;;;;;;;;;;;;;1.63;60.97;97106.52;1709901;83;25071;-85
2020/12/27 14:33:25;;;;;;;;;;;;;;;1.64;60.94;97109.91;1685053;83;22236;-85
2020/12/27 14:36:13;;;;;;;;;;;;;;;1.67;60.91;97108.00;1650559;86;26156;-85
2020/12/27 14:38:59;;;;;;;;;;;;;;;1.72;60.85;97101.75;1709023;83;25034;-87